createdAt,value
2019-05-19T00:01:34.369Z,100681.38
2019-05-19T00:04:18.110Z,100703.37
2019-05-19T00:07:03.460Z,100706.86
2019-05-19T00:09:48.203Z,100686.72
2019-05-19T00:12:32.875Z,100684.69
2019-05-19T00:15:17.506Z,100683.98
2019-05-19T00:18:01.768Z,100711.64
2019-05-19T00:20:46.682Z,100703.88
2019-05-19T00:23:31.031Z,100706.53
2019-05-19T00:26:14.583Z,100710.63
2019-05-19T00:28:58.589Z,100693.65
2019-05-19T00:31:42.241Z,100710.09
2019-05-19T00:34:26.954Z,100701.33
2019-05-19T00:37:10.833Z,100685.13
2019-05-19T00:39:55.394Z,100704.55
2019-05-19T00:42:40.739Z,100677.61
2019-05-19T00:45:24.593Z,100694.23
2019-05-19T00:48:09.778Z,100682.58
2019-05-19T00:50:56.543Z,100689.73
2019-05-19T00:53:40.690Z,100691.92
2019-05-19T00:56:25.147Z,100691.11
2019-05-19T00:59:09.732Z,100679.64
2019-05-19T01:01:53.750Z,100681.78
2019-05-19T01:04:39.915Z,100708.70
2019-05-19T01:07:23.693Z,100702.78
2019-05-19T01:10:07.769Z,100674.56
2019-05-19T01:12:40.091Z,100695.30
2019-05-19T01:15:24.461Z,100695.03
2019-05-19T01:18:09.905Z,100693.58
2019-05-19T01:20:53.742Z,100667.23
2019-05-19T01:23:38.242Z,100692.41
2019-05-19T01:26:23.062Z,100667.33
2019-05-19T01:29:08.846Z,100665.27
2019-05-19T01:31:52.441Z,100688.02
2019-05-19T01:34:36.574Z,100661.83
2019-05-19T01:37:21.067Z,100654.84
2019-05-19T01:40:10.258Z,100681.21
2019-05-19T01:42:56.060Z,100652.49
2019-05-19T01:45:40.278Z,100651.20
2019-05-19T01:48:12.615Z,100680.95
2019-05-19T01:50:56.713Z,100669.11
2019-05-19T01:53:40.791Z,100646.23
2019-05-19T01:56:25.333Z,100673.72
2019-05-19T01:59:09.094Z,100672.16
2019-05-19T02:01:53.843Z,100674.78
2019-05-19T02:04:38.368Z,100669.88
2019-05-19T02:07:24.889Z,100651.20
2019-05-19T02:10:08.425Z,100650.48
2019-05-19T02:12:52.336Z,100670.82
2019-05-19T02:15:37.227Z,100642.95
2019-05-19T02:18:21.800Z,100651.59
2019-05-19T02:21:05.706Z,100672.08
2019-05-19T02:23:50.391Z,100648.98
2019-05-19T02:26:34.007Z,100654.91
2019-05-19T02:29:18.020Z,100681.77
2019-05-19T02:32:03.493Z,100655.03
2019-05-19T02:34:47.635Z,100670.17
2019-05-19T02:37:31.905Z,100648.36
2019-05-19T02:40:16.773Z,100672.41
2019-05-19T02:43:01.067Z,100670.72
2019-05-19T02:45:45.877Z,100648.19
2019-05-19T02:48:29.866Z,100669.47
2019-05-19T02:51:15.376Z,100672.47
2019-05-19T02:53:59.161Z,100682.91
2019-05-19T02:56:43.459Z,100660.33
2019-05-19T02:59:31.972Z,100690.47
2019-05-19T03:02:28.473Z,100690.86
2019-05-19T03:05:14.356Z,100691.29
2019-05-19T03:07:57.950Z,100666.33
2019-05-19T03:10:41.542Z,100694.64
2019-05-19T03:13:25.670Z,100694.27
2019-05-19T03:16:10.073Z,100667.23
2019-05-19T03:18:54.862Z,100689.03
2019-05-19T03:21:39.114Z,100670.38
2019-05-19T03:24:23.596Z,100675.19
2019-05-19T03:27:07.722Z,100666.73
2019-05-19T03:29:56.552Z,100698.15
2019-05-19T03:32:47.698Z,100676.31
2019-05-19T03:35:31.537Z,100681.27
2019-05-19T03:38:18.699Z,100684.07
2019-05-19T03:41:03.876Z,100706.48
2019-05-19T03:43:48.666Z,100703.27
2019-05-19T03:46:32.930Z,100699.77
2019-05-19T03:49:18.991Z,100688.41
2019-05-19T03:52:02.844Z,100680.50
2019-05-19T03:54:47.509Z,100677.83
2019-05-19T03:57:31.315Z,100710.88
2019-05-19T04:00:18.162Z,100709.11
2019-05-19T04:03:02.689Z,100690.25
2019-05-19T04:05:47.538Z,100712.34
2019-05-19T04:08:32.005Z,100706.97
2019-05-19T04:11:17.111Z,100712.77
2019-05-19T04:14:00.718Z,100711.94
2019-05-19T04:16:33.056Z,100718.06
2019-05-19T04:19:18.776Z,100698.14
2019-05-19T04:22:02.385Z,100726.08
2019-05-19T04:24:46.655Z,100726.06
2019-05-19T04:27:31.159Z,100698.44
2019-05-19T04:30:15.333Z,100707.97
2019-05-19T04:32:59.820Z,100723.08
2019-05-19T04:35:43.972Z,100704.68
2019-05-19T04:38:27.677Z,100721.94
2019-05-19T04:41:12.736Z,100701.20
2019-05-19T04:43:56.965Z,100730.66
2019-05-19T04:46:41.008Z,100707.74
2019-05-19T04:49:25.999Z,100730.77
2019-05-19T04:52:11.196Z,100731.35
2019-05-19T04:54:55.410Z,100734.75
2019-05-19T04:57:39.922Z,100736.50
2019-05-19T05:00:24.669Z,100719.16
2019-05-19T05:03:09.063Z,100721.50
2019-05-19T05:05:53.233Z,100730.95
2019-05-19T05:08:36.988Z,100707.05
2019-05-19T05:11:21.563Z,100706.66
2019-05-19T05:14:06.067Z,100704.42
2019-05-19T05:16:52.546Z,100707.16
2019-05-19T05:19:36.555Z,100701.48
2019-05-19T05:22:27.201Z,100708.87
2019-05-19T05:25:11.018Z,100701.02
2019-05-19T05:27:55.551Z,100728.22
2019-05-19T05:30:39.183Z,100726.66
2019-05-19T05:33:23.341Z,100732.19
2019-05-19T05:36:12.179Z,100714.77
2019-05-19T05:38:55.872Z,100721.30
2019-05-19T05:41:40.517Z,100712.20
2019-05-19T05:44:24.231Z,100716.34
2019-05-19T05:47:09.004Z,100720.27
2019-05-19T05:49:52.697Z,100721.73
2019-05-19T05:52:38.753Z,100741.00
2019-05-19T05:55:22.600Z,100718.27
2019-05-19T05:58:07.350Z,100723.17
2019-05-19T06:00:51.826Z,100717.08
2019-05-19T06:03:36.248Z,100733.92
2019-05-19T06:06:20.705Z,100712.65
2019-05-19T06:09:05.737Z,100741.17
2019-05-19T06:11:51.698Z,100737.80
2019-05-19T06:14:35.588Z,100710.95
2019-05-19T06:17:20.783Z,100705.27
2019-05-19T06:20:04.970Z,100736.22
2019-05-19T06:22:37.474Z,100738.11
2019-05-19T06:25:21.878Z,100717.83
2019-05-19T06:28:06.151Z,100716.58
2019-05-19T06:30:51.000Z,100715.67
2019-05-19T06:33:35.148Z,100741.80
2019-05-19T06:36:19.960Z,100720.32
2019-05-19T06:39:06.737Z,100743.75
2019-05-19T06:41:39.108Z,100747.44
2019-05-19T06:44:24.035Z,100717.53
2019-05-19T06:47:10.292Z,100725.61
2019-05-19T06:49:54.405Z,100722.90
2019-05-19T06:52:38.654Z,100725.95
2019-05-19T06:55:23.027Z,100750.10
2019-05-19T06:58:06.819Z,100724.64
2019-05-19T07:00:51.414Z,100728.58
2019-05-19T07:03:38.345Z,100756.52
2019-05-19T07:06:22.848Z,100734.50
2019-05-19T07:09:07.227Z,100739.41
2019-05-19T07:11:51.605Z,100764.70
2019-05-19T07:14:37.477Z,100764.14
2019-05-19T07:17:23.282Z,100745.50
2019-05-19T07:20:07.080Z,100739.52
2019-05-19T07:22:50.804Z,100765.47
2019-05-19T07:25:34.791Z,100768.67
2019-05-19T07:28:19.516Z,100740.32
2019-05-19T07:31:03.315Z,100746.48
2019-05-19T07:33:46.937Z,100738.84
2019-05-19T07:36:31.171Z,100761.84
2019-05-19T07:39:15.456Z,100749.05
2019-05-19T07:41:59.896Z,100775.16
2019-05-19T07:44:45.520Z,100771.88
2019-05-19T07:47:30.412Z,100770.11
2019-05-19T07:50:14.442Z,100745.53
2019-05-19T07:52:59.722Z,100764.09
2019-05-19T07:55:44.520Z,100746.55
2019-05-19T07:58:28.675Z,100774.36
2019-05-19T08:01:01.847Z,100767.98
2019-05-19T08:03:46.413Z,100747.73
2019-05-19T08:06:32.654Z,100749.41
2019-05-19T08:09:18.580Z,100770.58
2019-05-19T08:12:03.419Z,100749.77
2019-05-19T08:14:47.175Z,100771.81
2019-05-19T08:17:31.530Z,100768.81
2019-05-19T08:20:15.659Z,100773.34
2019-05-19T08:22:59.590Z,100770.11
2019-05-19T08:25:44.393Z,100776.97
2019-05-19T08:28:29.533Z,100752.41
2019-05-19T08:31:15.195Z,100747.07
2019-05-19T08:33:47.333Z,100770.25
2019-05-19T08:36:31.980Z,100755.41
2019-05-19T08:39:16.156Z,100747.95
2019-05-19T08:42:00.990Z,100751.52
2019-05-19T08:44:45.106Z,100768.84
2019-05-19T08:47:18.376Z,100768.61
2019-05-19T08:50:02.265Z,100742.60
2019-05-19T08:52:46.255Z,100736.87
2019-05-19T08:55:29.976Z,100743.66
2019-05-19T08:58:02.495Z,100759.31
2019-05-19T09:00:46.401Z,100760.78
2019-05-19T09:03:30.297Z,100758.64
2019-05-19T09:06:15.025Z,100752.45
2019-05-19T09:08:59.037Z,100725.98
2019-05-19T09:11:43.910Z,100749.77
2019-05-19T09:14:27.929Z,100747.44
2019-05-19T09:17:12.007Z,100745.09
2019-05-19T09:19:55.923Z,100721.98
2019-05-19T09:22:40.455Z,100719.45
2019-05-19T09:25:24.564Z,100733.58
2019-05-19T09:28:08.708Z,100717.18
2019-05-19T09:30:53.255Z,100713.68
2019-05-19T09:33:37.151Z,100702.94
2019-05-19T09:36:09.570Z,100726.39
2019-05-19T09:39:07.071Z,100724.47
2019-05-19T09:41:51.274Z,100717.12
2019-05-19T09:47:19.578Z,100694.03
2019-05-19T09:49:52.309Z,100710.49
2019-05-19T09:52:36.283Z,100713.91
2019-05-19T09:55:20.422Z,100687.91
2019-05-19T09:58:04.513Z,100711.30
2019-05-19T10:00:50.456Z,100709.13
2019-05-19T10:03:35.158Z,100690.38
2019-05-19T10:06:19.110Z,100709.73
2019-05-19T10:09:07.464Z,100682.86
2019-05-19T10:12:17.515Z,100684.48
2019-05-19T10:15:01.792Z,100680.59
2019-05-19T10:17:48.300Z,100681.66
2019-05-19T10:20:32.187Z,100690.70
2019-05-19T10:23:20.683Z,100669.30
2019-05-19T10:26:04.685Z,100683.64
2019-05-19T10:28:48.969Z,100689.27
2019-05-19T10:31:33.228Z,100687.84
2019-05-19T10:34:17.461Z,100697.20
2019-05-19T10:37:02.358Z,100669.31
2019-05-19T10:39:47.055Z,100687.86
2019-05-19T10:42:31.213Z,100688.09
2019-05-19T10:45:19.509Z,100657.06
2019-05-19T10:48:07.425Z,100655.47
2019-05-19T10:50:51.812Z,100652.38
2019-05-19T10:53:37.002Z,100663.89
2019-05-19T10:56:21.502Z,100645.09
2019-05-19T10:59:06.026Z,100644.00
2019-05-19T11:01:52.566Z,100640.05
2019-05-19T11:04:37.220Z,100633.91
2019-05-19T11:07:21.764Z,100623.45
2019-05-19T11:10:05.929Z,100645.81
2019-05-19T11:15:39.274Z,100635.53
2019-05-19T11:18:23.789Z,100623.80
2019-05-19T11:21:08.161Z,100635.03
2019-05-19T11:23:52.505Z,100612.16
2019-05-19T11:26:36.815Z,100615.83
2019-05-19T11:32:09.628Z,100600.55
2019-05-19T11:34:56.847Z,100624.36
2019-05-19T11:37:40.514Z,100626.55
2019-05-19T11:40:25.064Z,100622.42
2019-05-19T11:43:09.786Z,100611.10
2019-05-19T11:45:53.874Z,100608.69
2019-05-19T11:48:38.137Z,100600.06
2019-05-19T11:51:22.949Z,100600.48
2019-05-19T11:54:07.655Z,100612.89
2019-05-19T11:56:53.550Z,100618.75
2019-05-19T11:59:38.368Z,100607.72
2019-05-19T12:02:22.820Z,100591.34
2019-05-19T12:05:07.660Z,100601.77
2019-05-19T12:07:51.724Z,100599.37
2019-05-19T12:10:35.434Z,100594.64
2019-05-19T12:13:19.759Z,100582.45
2019-05-19T12:16:04.830Z,100608.77
2019-05-19T12:18:51.103Z,100603.48
2019-05-19T12:21:35.046Z,100597.66
2019-05-19T12:24:19.591Z,100592.19
2019-05-19T12:27:03.901Z,100568.73
2019-05-19T12:29:50.524Z,100567.91
2019-05-19T12:32:34.388Z,100568.02
2019-05-19T12:35:06.921Z,100578.73
2019-05-19T12:37:51.174Z,100579.13
2019-05-19T12:40:35.364Z,100554.20
2019-05-19T12:43:19.324Z,100580.79
2019-05-19T12:46:03.446Z,100553.06
2019-05-19T12:48:47.912Z,100543.02
2019-05-19T12:51:32.916Z,100569.58
2019-05-19T12:54:16.660Z,100563.16
2019-05-19T12:57:00.994Z,100534.49
2019-05-19T12:59:45.372Z,100552.02
2019-05-19T13:02:28.979Z,100529.47
2019-05-19T13:05:12.949Z,100549.89
2019-05-19T13:07:45.890Z,100547.16
2019-05-19T13:10:30.591Z,100549.64
2019-05-19T13:13:02.985Z,100539.73
2019-05-19T13:15:46.868Z,100538.67
2019-05-19T13:18:31.796Z,100540.69
2019-05-19T13:21:16.344Z,100543.36
2019-05-19T13:24:00.303Z,100534.27
2019-05-19T13:26:56.175Z,100528.95
2019-05-19T13:29:32.398Z,100531.72
2019-05-19T13:35:01.876Z,100496.28
2019-05-19T13:37:51.446Z,100510.63
2019-05-19T13:40:35.495Z,100500.59
2019-05-19T13:43:20.090Z,100519.83
2019-05-19T13:46:04.296Z,100490.27
2019-05-19T13:48:48.172Z,100492.91
2019-05-19T13:51:20.732Z,100498.09
2019-05-19T13:54:05.124Z,100481.16
2019-05-19T13:56:49.458Z,100469.06
2019-05-19T13:59:34.282Z,100466.63
2019-05-19T14:02:18.382Z,100466.33
2019-05-19T14:05:04.808Z,100494.25
2019-05-19T14:07:49.351Z,100473.03
2019-05-19T14:10:33.431Z,100500.85
2019-05-19T14:13:05.751Z,100496.83
2019-05-19T14:15:49.847Z,100480.84
2019-05-19T14:18:34.218Z,100482.94
2019-05-19T14:21:18.786Z,100503.66
2019-05-19T14:24:03.881Z,100479.73
2019-05-19T14:26:47.758Z,100482.34
2019-05-19T14:29:33.726Z,100503.81
2019-05-19T14:32:17.935Z,100480.45
2019-05-19T14:35:05.032Z,100514.05
2019-05-19T14:37:49.196Z,100500.46
2019-05-19T14:40:21.608Z,100518.09
2019-05-19T14:43:06.112Z,100488.31
2019-05-19T14:45:50.858Z,100513.98
2019-05-19T14:48:34.964Z,100489.28
2019-05-19T14:51:19.626Z,100492.36
2019-05-19T14:54:04.281Z,100508.36
2019-05-19T14:56:49.016Z,100508.12
2019-05-19T14:59:33.570Z,100487.80
2019-05-19T15:02:19.965Z,100489.88
2019-05-19T15:04:51.738Z,100496.47
2019-05-19T15:07:35.698Z,100467.31
2019-05-19T15:10:22.091Z,100499.56
2019-05-19T15:13:06.586Z,100485.01
2019-05-19T15:15:50.331Z,100496.12
2019-05-19T15:18:34.501Z,100468.91
2019-05-19T15:21:18.884Z,100489.75
2019-05-19T15:24:03.109Z,100479.79
2019-05-19T15:26:48.508Z,100497.75
2019-05-19T15:29:33.258Z,100475.50
2019-05-19T15:32:17.424Z,100476.35
2019-05-19T15:35:01.621Z,100491.13
2019-05-19T15:37:47.335Z,100473.02
2019-05-19T15:40:32.710Z,100488.36
2019-05-19T15:43:16.887Z,100489.31
2019-05-19T15:45:49.464Z,100497.11
2019-05-19T15:48:33.479Z,100489.32
2019-05-19T15:51:28.520Z,100470.73
2019-05-19T15:54:05.751Z,100484.08
2019-05-19T15:56:49.679Z,100459.64
2019-05-19T15:59:33.769Z,100470.29
2019-05-19T16:02:18.986Z,100453.98
2019-05-19T16:05:02.689Z,100454.42
2019-05-19T16:07:46.854Z,100459.05
2019-05-19T16:10:31.031Z,100464.41
2019-05-19T16:13:15.286Z,100485.66
2019-05-19T16:15:47.849Z,100482.96
2019-05-19T16:18:31.575Z,100457.95
2019-05-19T16:21:15.732Z,100489.22
2019-05-19T16:23:48.127Z,100489.45
2019-05-19T16:26:31.835Z,100470.13
2019-05-19T16:29:16.621Z,100473.52
2019-05-19T16:31:48.948Z,100486.77
2019-05-19T16:34:36.062Z,100487.16
2019-05-19T16:37:20.146Z,100485.05
2019-05-19T16:40:05.319Z,100461.88
2019-05-19T16:42:50.256Z,100485.11
2019-05-19T16:45:34.884Z,100485.09
2019-05-19T16:48:19.164Z,100489.39
2019-05-19T16:51:03.395Z,100468.17
2019-05-19T16:53:49.409Z,100474.91
2019-05-19T16:56:34.176Z,100470.23
2019-05-19T16:59:18.183Z,100468.25
2019-05-19T17:02:02.191Z,100488.63
2019-05-19T17:04:46.437Z,100467.06
2019-05-19T17:07:32.273Z,100489.66
2019-05-19T17:10:16.412Z,100469.48
2019-05-19T17:12:49.677Z,100492.59
2019-05-19T17:15:33.595Z,100472.55
2019-05-19T17:18:17.447Z,100472.81
2019-05-19T17:21:01.341Z,100493.98
2019-05-19T17:23:45.470Z,100470.63
2019-05-19T17:26:29.973Z,100478.13
2019-05-19T17:29:14.687Z,100496.23
2019-05-19T17:32:05.954Z,100481.16
2019-05-19T17:34:44.392Z,100495.70
2019-05-19T17:37:30.992Z,100479.03
2019-05-19T17:40:16.978Z,100481.75
2019-05-19T17:43:00.817Z,100481.41
2019-05-19T17:45:46.581Z,100479.02
2019-05-19T17:48:30.685Z,100478.34
2019-05-19T17:51:15.173Z,100477.50
2019-05-19T17:53:59.286Z,100478.58
2019-05-19T17:56:43.527Z,100477.89
2019-05-19T17:59:27.596Z,100482.11
2019-05-19T18:02:13.166Z,100503.25
2019-05-19T18:04:57.857Z,100498.11
2019-05-19T18:07:42.421Z,100497.32
2019-05-19T18:10:26.229Z,100472.48
2019-05-19T18:13:10.806Z,100504.83
2019-05-19T18:15:54.931Z,100501.13
2019-05-19T18:18:38.824Z,100486.63
2019-05-19T18:21:22.804Z,100475.95
2019-05-19T18:24:06.727Z,100498.44
2019-05-19T18:26:50.648Z,100493.75
2019-05-19T18:29:35.035Z,100495.22
2019-05-19T18:32:19.571Z,100475.13
2019-05-19T18:35:06.825Z,100499.57
2019-05-19T18:37:51.007Z,100504.87
2019-05-19T18:40:34.950Z,100510.97
2019-05-19T18:43:18.930Z,100481.09
2019-05-19T18:46:03.793Z,100509.52
2019-05-19T18:48:48.002Z,100491.40
2019-05-19T18:51:32.603Z,100515.58
2019-05-19T18:54:17.015Z,100502.36
2019-05-19T18:57:00.994Z,100526.14
2019-05-19T18:59:47.747Z,100527.19
2019-05-19T19:02:31.330Z,100531.52
2019-05-19T19:05:15.862Z,100506.27
2019-05-19T19:07:59.803Z,100535.16
2019-05-19T19:10:49.659Z,100512.95
2019-05-19T19:13:33.696Z,100541.09
2019-05-19T19:16:17.490Z,100548.83
2019-05-19T19:19:01.880Z,100547.91
2019-05-19T19:21:45.849Z,100552.67
2019-05-19T19:24:30.062Z,100525.94
2019-05-19T19:27:14.613Z,100557.54
2019-05-19T19:30:03.323Z,100555.34
2019-05-19T19:32:46.156Z,100542.30
2019-05-19T19:35:38.713Z,100536.27
2019-05-19T19:38:16.281Z,100542.95
2019-05-19T19:41:00.669Z,100541.41
2019-05-19T19:43:45.004Z,100539.06
2019-05-19T19:46:31.185Z,100561.72
2019-05-19T19:49:14.951Z,100540.88
2019-05-19T19:52:05.514Z,100546.05
2019-05-19T19:54:49.327Z,100569.47
2019-05-19T19:57:33.288Z,100573.66
2019-05-19T20:00:23.618Z,100550.31
2019-05-19T20:03:07.660Z,100573.13
2019-05-19T20:05:52.373Z,100554.89
2019-05-19T20:08:36.567Z,100575.55
2019-05-19T20:11:20.884Z,100568.44
2019-05-19T20:14:05.512Z,100566.17
2019-05-19T20:16:49.932Z,100592.78
2019-05-19T20:19:34.376Z,100592.44
2019-05-19T20:22:18.564Z,100563.99
2019-05-19T20:25:02.960Z,100597.57
2019-05-19T20:27:48.852Z,100573.38
2019-05-19T20:30:36.151Z,100571.19
2019-05-19T20:33:18.814Z,100600.37
2019-05-19T20:36:03.217Z,100580.98
2019-05-19T20:38:46.752Z,100583.48
2019-05-19T20:41:30.728Z,100601.80
2019-05-19T20:44:14.645Z,100606.03
2019-05-19T20:46:58.356Z,100576.27
2019-05-19T20:49:43.216Z,100572.50
2019-05-19T20:52:27.189Z,100574.66
2019-05-19T20:55:11.258Z,100578.58
2019-05-19T20:57:55.277Z,100574.43
2019-05-19T21:00:50.037Z,100580.09
2019-05-19T21:03:26.138Z,100581.28
2019-05-19T21:06:10.429Z,100599.13
2019-05-19T21:08:54.306Z,100594.48
2019-05-19T21:11:38.914Z,100581.28
2019-05-19T21:14:23.230Z,100580.84
2019-05-19T21:17:09.148Z,100607.33
2019-05-19T21:19:52.908Z,100605.81
2019-05-19T21:22:39.017Z,100606.86
2019-05-19T21:25:23.705Z,100606.70
2019-05-19T21:28:08.193Z,100605.31
2019-05-19T21:31:04.988Z,100580.10
2019-05-19T21:33:38.526Z,100578.38
2019-05-19T21:36:22.850Z,100578.57
2019-05-19T21:39:07.002Z,100582.84
2019-05-19T21:41:50.600Z,100590.57
2019-05-19T21:44:34.150Z,100587.36
2019-05-19T21:47:18.417Z,100591.81
2019-05-19T21:50:02.639Z,100590.30
2019-05-19T21:52:50.803Z,100607.23
2019-05-19T21:55:34.379Z,100578.66
2019-05-19T21:58:18.388Z,100606.09
2019-05-19T22:01:03.795Z,100591.94
2019-05-19T22:03:47.671Z,100612.48
2019-05-19T22:06:35.026Z,100582.72
2019-05-19T22:09:19.612Z,100581.25
2019-05-19T22:12:03.497Z,100583.95
2019-05-19T22:14:51.806Z,100607.41
2019-05-19T22:17:35.403Z,100580.94
2019-05-19T22:20:19.416Z,100607.13
2019-05-19T22:23:04.290Z,100583.76
2019-05-19T22:25:51.403Z,100610.14
2019-05-19T22:28:35.710Z,100608.83
2019-05-19T22:31:20.547Z,100586.98
2019-05-19T22:34:05.288Z,100585.64
2019-05-19T22:36:49.940Z,100612.28
2019-05-19T22:39:33.969Z,100613.98
2019-05-19T22:42:18.316Z,100586.13
2019-05-19T22:45:02.962Z,100602.30
2019-05-19T22:47:47.441Z,100596.53
2019-05-19T22:50:35.982Z,100573.83
2019-05-19T22:53:22.003Z,100564.89
2019-05-19T22:56:06.169Z,100593.89
2019-05-19T22:58:51.629Z,100573.58
2019-05-19T23:01:35.507Z,100574.83
2019-05-19T23:04:19.311Z,100597.12
2019-05-19T23:07:03.289Z,100597.31
2019-05-19T23:09:47.358Z,100594.90
2019-05-19T23:12:31.952Z,100595.63
2019-05-19T23:15:16.068Z,100569.15
2019-05-19T23:18:00.545Z,100572.12
2019-05-19T23:20:44.549Z,100567.64
2019-05-19T23:23:28.751Z,100567.93
2019-05-19T23:26:12.546Z,100585.54
2019-05-19T23:28:44.920Z,100589.31
2019-05-19T23:31:29.215Z,100566.58
2019-05-19T23:34:15.668Z,100580.43
2019-05-19T23:36:59.526Z,100559.11
2019-05-19T23:39:43.571Z,100559.72
2019-05-19T23:42:28.299Z,100545.84
2019-05-19T23:45:13.240Z,100542.02
2019-05-19T23:47:57.702Z,100546.70
2019-05-19T23:50:43.321Z,100566.20
2019-05-19T23:53:27.600Z,100541.98
2019-05-19T23:56:12.091Z,100541.27
2019-05-19T23:58:56.037Z,100542.10
